createdAt,value
2019-01-19T00:02:04.528Z,9.45
2019-01-19T00:04:45.643Z,9.30
2019-01-19T00:07:26.846Z,8.65
2019-01-19T00:10:08.131Z,9.75
2019-01-19T00:15:39.817Z,10.82
2019-01-19T00:23:54.068Z,9.15
2019-01-19T00:26:35.519Z,8.75
2019-01-19T00:29:42.841Z,9.13
2019-01-19T00:32:24.117Z,9.13
2019-01-19T00:35:07.615Z,8.33
2019-01-19T00:37:45.219Z,8.38
2019-01-19T00:40:52.771Z,8.88
2019-01-19T00:43:34.181Z,9.50
2019-01-19T00:46:41.531Z,8.98
2019-01-19T00:49:48.969Z,7.92
2019-01-19T00:52:56.379Z,8.30
2019-01-19T00:55:37.635Z,9.10
2019-01-19T00:58:18.720Z,8.20
2019-01-19T01:01:00.201Z,9.75
2019-01-19T01:03:45.387Z,12.43
2019-01-19T01:06:26.119Z,9.68
2019-01-19T01:09:06.685Z,8.93
2019-01-19T01:11:47.964Z,9.55
2019-01-19T01:14:28.603Z,16.05
2019-01-19T01:17:09.938Z,10.82
2019-01-19T01:19:51.264Z,8.75
2019-01-19T01:22:32.079Z,9.63
2019-01-19T01:28:00.866Z,8.88
2019-01-19T01:30:41.270Z,9.33
2019-01-19T01:36:37.494Z,8.65
2019-01-19T01:39:44.856Z,8.60
2019-01-19T01:42:25.563Z,9.93
2019-01-19T01:48:27.878Z,9.75
2019-01-19T01:51:35.247Z,10.43
2019-01-19T01:54:15.820Z,12.28
2019-01-19T01:56:56.440Z,7.72
2019-01-19T02:00:03.982Z,9.25
2019-01-19T02:02:44.539Z,8.48
2019-01-19T02:05:25.212Z,7.90
2019-01-19T02:08:06.657Z,8.53
2019-01-19T02:11:06.906Z,8.45
2019-01-19T02:13:47.667Z,9.65
2019-01-19T02:16:28.179Z,7.70
2019-01-19T02:19:09.215Z,8.70
2019-01-19T02:21:49.900Z,9.38
2019-01-19T02:24:30.756Z,8.75
2019-01-19T02:27:11.894Z,10.00
2019-01-19T02:29:52.778Z,8.20
2019-01-19T02:32:33.366Z,8.08
2019-01-19T02:35:14.098Z,9.25
2019-01-19T02:37:54.982Z,9.28
2019-01-19T02:40:35.975Z,8.15
2019-01-19T02:43:17.192Z,8.50
2019-01-19T02:45:58.097Z,8.73
2019-01-19T02:48:39.914Z,9.40
2019-01-19T02:51:20.327Z,8.33
2019-01-19T02:54:01.664Z,8.98
2019-01-19T02:56:42.536Z,7.87
2019-01-19T02:59:23.308Z,8.33
2019-01-19T03:02:04.363Z,9.43
2019-01-19T03:04:45.089Z,8.95
2019-01-19T03:07:44.658Z,7.58
2019-01-19T03:10:52.812Z,8.93
2019-01-19T03:13:33.985Z,7.55
2019-01-19T03:16:41.341Z,9.68
2019-01-19T03:19:48.745Z,8.68
2019-01-19T03:22:30.143Z,9.63
2019-01-19T03:25:11.091Z,8.25
2019-01-19T03:27:52.366Z,7.80
2019-01-19T03:33:47.787Z,9.48
2019-01-19T03:36:29.116Z,9.55
2019-01-19T03:39:36.551Z,8.75
2019-01-19T03:42:44.002Z,8.18
2019-01-19T03:45:24.887Z,8.70
2019-01-19T03:48:05.588Z,9.15
2019-01-19T03:50:46.377Z,9.38
2019-01-19T03:53:47.167Z,9.55
2019-01-19T03:56:27.800Z,9.10
2019-01-19T03:59:08.936Z,8.95
2019-01-19T04:01:49.487Z,8.95
2019-01-19T04:04:57.020Z,9.38
2019-01-19T04:07:48.908Z,8.48
2019-01-19T04:10:30.451Z,9.48
2019-01-19T04:13:10.880Z,9.20
2019-01-19T04:15:51.886Z,9.03
2019-01-19T04:18:32.722Z,9.23
2019-01-19T04:21:13.258Z,8.68
2019-01-19T04:23:53.940Z,9.75
2019-01-19T04:26:34.724Z,8.65
2019-01-19T04:29:15.653Z,8.00
2019-01-19T04:31:56.885Z,9.38
2019-01-19T04:34:38.017Z,9.83
2019-01-19T04:37:18.932Z,7.72
2019-01-19T04:39:48.175Z,9.23
2019-01-19T04:45:42.352Z,8.90
2019-01-19T04:48:23.249Z,9.73
2019-01-19T04:51:04.318Z,9.25
2019-01-19T04:53:46.163Z,10.15
2019-01-19T04:56:27.592Z,9.88
2019-01-19T04:59:08.234Z,10.20
2019-01-19T05:01:49.536Z,9.33
2019-01-19T05:04:18.338Z,9.05
2019-01-19T05:07:06.462Z,8.40
2019-01-19T05:09:55.555Z,8.53
2019-01-19T05:12:24.578Z,8.78
2019-01-19T05:15:14.188Z,10.35
2019-01-19T05:17:55.563Z,8.60
2019-01-19T05:20:36.919Z,8.88
2019-01-19T05:23:17.702Z,8.18
2019-01-19T05:25:58.737Z,9.00
2019-01-19T05:28:39.906Z,8.60
2019-01-19T05:34:02.608Z,7.70
2019-01-19T05:36:43.286Z,9.15
2019-01-19T05:39:24.662Z,9.43
2019-01-19T05:42:05.354Z,7.92
2019-01-19T05:44:46.661Z,9.03
2019-01-19T05:47:29.376Z,8.88
2019-01-19T05:50:11.868Z,8.05
2019-01-19T05:52:58.148Z,9.65
2019-01-19T05:55:42.077Z,9.40
2019-01-19T06:01:17.018Z,8.78
2019-01-19T06:03:48.791Z,8.18
2019-01-19T06:09:12.854Z,9.68
2019-01-19T06:12:01.824Z,9.13
2019-01-19T06:14:50.116Z,9.93
2019-01-19T06:17:31.496Z,8.80
2019-01-19T06:20:12.637Z,9.15
2019-01-19T06:25:39.755Z,9.35
2019-01-19T06:28:21.230Z,8.30
2019-01-19T06:31:02.104Z,9.00
2019-01-19T06:33:47.697Z,9.15
2019-01-19T06:36:17.238Z,8.35
2019-01-19T06:48:34.797Z,8.43
2019-01-19T06:51:16.128Z,8.03
2019-01-19T06:54:01.682Z,9.08
2019-01-19T06:56:40.849Z,8.50
2019-01-19T06:59:21.812Z,7.70
2019-01-19T07:02:02.982Z,8.45
2019-01-19T07:04:32.334Z,6.90
2019-01-19T07:07:02.871Z,8.40
2019-01-19T07:12:45.520Z,8.00
2019-01-19T07:15:15.289Z,8.40
2019-01-19T07:18:03.547Z,8.30
2019-01-19T07:23:46.884Z,8.23
2019-01-19T07:26:36.105Z,7.55
2019-01-19T07:29:06.050Z,7.60
2019-01-19T07:34:36.624Z,7.00
2019-01-19T07:37:16.015Z,8.10
2019-01-19T07:39:57.141Z,8.63
2019-01-19T07:42:28.494Z,8.78
2019-01-19T07:45:19.111Z,7.30
2019-01-19T07:51:11.814Z,7.78
2019-01-19T07:53:52.571Z,6.08
2019-01-19T07:56:34.283Z,8.20
2019-01-19T07:59:15.318Z,6.80
2019-01-19T08:01:56.218Z,7.25
2019-01-19T08:04:36.924Z,7.30
2019-01-19T08:07:05.972Z,6.25
2019-01-19T08:09:54.029Z,6.53
2019-01-19T08:15:25.756Z,7.03
2019-01-19T08:18:09.592Z,5.80
2019-01-19T08:20:50.372Z,6.28
2019-01-19T08:32:06.730Z,7.33
2019-01-19T08:34:49.131Z,7.05
2019-01-19T08:37:29.869Z,8.00
2019-01-19T08:40:10.403Z,7.70
2019-01-19T08:42:58.043Z,7.70
2019-01-19T08:45:38.762Z,7.87
2019-01-19T08:48:19.929Z,8.43
2019-01-19T08:51:00.479Z,7.42
2019-01-19T08:53:41.835Z,6.47
2019-01-19T08:56:23.175Z,6.20
2019-01-19T08:59:04.579Z,5.92
2019-01-19T09:01:45.763Z,6.37
2019-01-19T09:04:27.003Z,5.35
2019-01-19T09:07:07.562Z,6.65
2019-01-19T09:09:36.582Z,7.92
2019-01-19T09:12:24.895Z,6.15
2019-01-19T09:15:06.358Z,6.08
2019-01-19T09:17:47.252Z,5.27
2019-01-19T09:20:28.468Z,6.77
2019-01-19T09:23:28.327Z,6.17
2019-01-19T09:26:09.535Z,6.10
2019-01-19T09:28:50.714Z,6.17
2019-01-19T09:31:31.278Z,6.62
2019-01-19T09:36:54.783Z,6.40
2019-01-19T09:39:35.727Z,6.43
2019-01-19T09:42:16.702Z,6.08
2019-01-19T09:44:57.331Z,6.20
2019-01-19T09:47:36.775Z,5.80
2019-01-19T09:50:07.996Z,6.13
2019-01-19T09:52:37.178Z,5.20
2019-01-19T09:55:25.529Z,5.40
2019-01-19T09:58:06.027Z,5.73
2019-01-19T10:00:47.042Z,5.43
2019-01-19T10:03:27.666Z,5.67
2019-01-19T10:06:08.468Z,6.00
2019-01-19T10:08:50.983Z,4.73
2019-01-19T10:11:31.554Z,6.27
2019-01-19T10:14:00.759Z,5.60
2019-01-19T10:16:54.695Z,5.67
2019-01-19T10:19:42.899Z,6.10
2019-01-19T10:22:24.239Z,4.90
2019-01-19T10:25:05.316Z,5.60
2019-01-19T10:27:49.181Z,5.00
2019-01-19T10:30:27.548Z,5.90
2019-01-19T10:33:15.391Z,4.80
2019-01-19T10:36:03.659Z,5.27
2019-01-19T10:38:44.871Z,4.87
2019-01-19T10:44:12.252Z,5.00
2019-01-19T10:46:54.604Z,5.33
2019-01-19T10:49:35.550Z,4.90
2019-01-19T10:52:14.746Z,5.10
2019-01-19T10:54:58.719Z,5.17
2019-01-19T10:57:39.809Z,4.40
2019-01-19T11:00:20.790Z,5.17
2019-01-19T11:03:01.765Z,4.70
2019-01-19T11:05:30.943Z,5.37
2019-01-19T11:08:19.967Z,5.30
2019-01-19T11:11:00.582Z,5.40
2019-01-19T11:13:42.295Z,5.53
2019-01-19T11:16:30.371Z,5.83
2019-01-19T11:19:11.109Z,5.30
2019-01-19T11:21:52.492Z,4.40
2019-01-19T11:24:21.562Z,5.47
2019-01-19T11:27:10.363Z,5.23
2019-01-19T11:29:54.252Z,6.10
2019-01-19T11:35:22.001Z,5.80
2019-01-19T11:38:03.703Z,4.43
2019-01-19T11:43:27.954Z,5.47
2019-01-19T11:46:16.283Z,5.23
2019-01-19T11:49:10.833Z,5.03
2019-01-19T11:55:02.185Z,5.27
2019-01-19T11:57:42.962Z,4.87
2019-01-19T12:00:15.421Z,4.90
2019-01-19T12:03:03.696Z,5.83
2019-01-19T12:05:52.070Z,5.03
2019-01-19T12:08:40.254Z,5.27
2019-01-19T12:16:52.904Z,4.87
2019-01-19T12:25:55.360Z,4.83
2019-01-19T12:28:36.526Z,4.33
2019-01-19T12:31:18.180Z,4.70
2019-01-19T12:33:47.235Z,3.80
2019-01-19T12:39:27.048Z,4.83
2019-01-19T12:42:21.294Z,4.47
2019-01-19T12:44:50.481Z,4.30
2019-01-19T13:00:02.377Z,4.00
2019-01-19T13:05:30.044Z,4.20
2019-01-19T13:08:15.298Z,3.47
2019-01-19T13:10:59.044Z,3.93
2019-01-19T13:16:24.564Z,4.13
2019-01-19T13:21:54.250Z,4.30
2019-01-19T13:30:10.162Z,3.70
2019-01-19T13:32:50.686Z,4.10
2019-01-19T13:35:34.235Z,3.97
2019-01-19T13:38:42.237Z,4.00
2019-01-19T13:41:49.779Z,4.27
2019-01-19T13:44:57.177Z,3.80
2019-01-19T13:47:40.783Z,4.23
2019-01-19T13:53:12.324Z,3.83
2019-01-19T13:58:40.217Z,4.20
2019-01-19T14:01:22.194Z,4.77
2019-01-19T14:04:04.412Z,4.60
2019-01-19T14:09:58.615Z,5.27
2019-01-19T14:12:40.971Z,4.60
2019-01-19T14:15:24.161Z,4.53
2019-01-19T14:18:06.828Z,4.47
2019-01-19T14:20:47.446Z,4.30
2019-01-19T14:23:55.235Z,4.27
2019-01-19T14:26:36.524Z,4.93
2019-01-19T14:29:54.953Z,4.43
2019-01-19T14:32:45.214Z,4.10
2019-01-19T14:35:26.113Z,5.07
2019-01-19T14:38:06.655Z,4.70
2019-01-19T14:43:36.709Z,4.33
2019-01-19T14:46:21.399Z,4.23
2019-01-19T14:49:06.977Z,5.00
2019-01-19T14:51:47.933Z,5.20
2019-01-19T14:54:32.193Z,4.73
2019-01-19T15:00:00.862Z,5.37
2019-01-19T15:02:42.253Z,4.90
2019-01-19T15:12:09.119Z,5.43
2019-01-19T15:15:16.598Z,5.37
2019-01-19T15:18:01.295Z,5.50
2019-01-19T15:20:43.364Z,6.07
2019-01-19T15:23:24.240Z,6.10
2019-01-19T15:26:50.614Z,5.67
2019-01-19T15:29:53.428Z,5.97
2019-01-19T15:33:00.871Z,5.67
2019-01-19T15:36:08.312Z,6.10
2019-01-19T15:45:29.212Z,5.67
2019-01-19T15:48:36.759Z,5.27
2019-01-19T15:54:05.273Z,6.50
2019-01-19T15:56:46.573Z,7.00
2019-01-19T16:02:25.722Z,5.97
2019-01-19T16:07:58.527Z,5.13
2019-01-19T16:10:55.681Z,5.00
2019-01-19T16:14:03.732Z,5.20
2019-01-19T16:17:11.219Z,6.50
2019-01-19T16:19:53.329Z,5.33
2019-01-19T16:22:36.268Z,5.60
2019-01-19T16:25:22.171Z,6.33
2019-01-19T16:28:05.677Z,5.73
2019-01-19T16:31:13.292Z,6.13
2019-01-19T16:34:10.576Z,5.50
2019-01-19T16:36:53.224Z,6.03
2019-01-19T16:39:34.104Z,6.30
2019-01-19T16:42:15.652Z,6.60
2019-01-19T16:44:56.915Z,6.80
2019-01-19T16:51:02.281Z,5.23
2019-01-19T16:54:09.938Z,4.73
2019-01-19T16:56:50.535Z,5.00
2019-01-19T16:59:31.520Z,5.33
2019-01-19T17:02:12.882Z,5.00
2019-01-19T17:04:53.781Z,5.90
2019-01-19T17:07:36.875Z,5.27
2019-01-19T17:16:04.061Z,5.50
2019-01-19T17:21:33.802Z,7.77
2019-01-19T17:24:41.326Z,6.23
2019-01-19T17:27:25.558Z,5.40
2019-01-19T17:32:55.806Z,5.57
2019-01-19T17:35:37.266Z,6.30
2019-01-19T17:38:18.407Z,5.00
2019-01-19T17:40:59.232Z,5.12
2019-01-19T17:43:42.841Z,5.20
2019-01-19T17:49:14.865Z,6.75
2019-01-19T17:51:56.176Z,6.55
2019-01-19T17:54:40.184Z,6.33
2019-01-19T17:57:21.707Z,6.40
2019-01-19T18:00:02.703Z,5.60
2019-01-19T18:02:46.291Z,6.60
2019-01-19T18:08:56.044Z,5.95
2019-01-19T18:12:03.589Z,6.47
2019-01-19T18:14:44.692Z,5.90
2019-01-19T18:17:26.275Z,6.87
2019-01-19T18:20:18.275Z,5.55
2019-01-19T18:22:59.474Z,7.03
2019-01-19T18:26:06.905Z,5.45
2019-01-19T18:28:48.770Z,6.20
2019-01-19T18:31:29.962Z,6.70
2019-01-19T18:34:14.295Z,6.08
2019-01-19T18:39:39.881Z,5.78
2019-01-19T18:42:21.246Z,5.72
2019-01-19T18:45:24.604Z,5.75
2019-01-19T18:48:32.897Z,6.65
2019-01-19T18:51:14.291Z,6.05
2019-01-19T18:54:09.196Z,5.55
2019-01-19T18:56:50.839Z,6.65
2019-01-19T18:59:59.908Z,6.10
2019-01-19T19:02:40.294Z,5.58
2019-01-19T19:05:25.717Z,5.20
2019-01-19T19:08:06.958Z,5.70
2019-01-19T19:10:48.293Z,5.47
2019-01-19T19:13:43.197Z,6.20
2019-01-19T19:16:50.599Z,6.90
2019-01-19T19:19:31.611Z,7.95
2019-01-19T19:22:39.090Z,7.78
2019-01-19T19:25:23.508Z,8.35
2019-01-19T19:30:47.136Z,7.90
2019-01-19T19:33:26.424Z,7.85
2019-01-19T19:36:33.752Z,7.00
2019-01-19T19:39:41.177Z,8.05
2019-01-19T19:42:22.382Z,7.95
2019-01-19T19:45:03.814Z,7.15
2019-01-19T19:47:44.876Z,8.05
2019-01-19T19:50:25.558Z,6.67
2019-01-19T19:52:54.539Z,6.50
2019-01-19T19:55:50.781Z,7.62
2019-01-19T19:58:33.309Z,7.20
2019-01-19T20:01:14.543Z,7.62
2019-01-19T20:03:43.595Z,6.95
2019-01-19T20:06:12.726Z,8.05
2019-01-19T20:08:41.778Z,6.62
2019-01-19T20:11:49.112Z,7.35
2019-01-19T20:14:39.868Z,7.28
2019-01-19T20:17:09.317Z,7.72
2019-01-19T20:19:57.744Z,7.75
2019-01-19T20:25:53.515Z,8.93
2019-01-19T20:28:34.199Z,7.40
2019-01-19T20:31:15.517Z,7.90
2019-01-19T20:36:41.582Z,9.30
2019-01-19T20:39:10.871Z,10.30
2019-01-19T20:41:59.203Z,9.90
2019-01-19T20:44:47.367Z,9.20
2019-01-19T20:47:29.141Z,9.20
2019-01-19T20:50:10.135Z,11.10
2019-01-19T20:52:50.797Z,9.30
2019-01-19T20:55:31.651Z,9.73
2019-01-19T20:58:12.242Z,9.58
2019-01-19T21:00:53.585Z,10.28
2019-01-19T21:03:22.597Z,10.35
2019-01-19T21:06:10.822Z,10.08
2019-01-19T21:12:09.560Z,11.15
2019-01-19T21:14:38.782Z,10.82
2019-01-19T21:17:27.127Z,9.88
2019-01-19T21:20:17.578Z,10.48
2019-01-19T21:22:58.159Z,10.35
2019-01-19T21:25:39.140Z,10.45
2019-01-19T21:28:19.850Z,10.13
2019-01-19T21:31:01.105Z,10.30
2019-01-19T21:33:42.506Z,11.20
2019-01-19T21:36:23.162Z,9.95
2019-01-19T21:39:04.606Z,10.65
2019-01-19T21:41:45.635Z,10.03
2019-01-19T21:44:26.834Z,10.18
2019-01-19T21:47:07.676Z,11.03
2019-01-19T21:49:48.637Z,11.45
2019-01-19T21:52:29.284Z,12.10
2019-01-19T21:55:09.827Z,10.48
2019-01-19T21:57:38.964Z,11.15
2019-01-19T22:00:27.385Z,11.90
2019-01-19T22:02:56.550Z,13.22
2019-01-19T22:05:49.626Z,13.90
2019-01-19T22:14:09.490Z,12.93
2019-01-19T22:16:38.604Z,12.65
2019-01-19T22:19:26.926Z,13.70
2019-01-19T22:21:56.028Z,12.78
2019-01-19T22:24:44.291Z,15.08
2019-01-19T22:27:25.675Z,13.13
2019-01-19T22:29:54.578Z,14.30
2019-01-19T22:32:42.871Z,11.48
2019-01-19T22:35:31.191Z,14.18
2019-01-19T22:38:12.007Z,13.10
2019-01-19T22:40:53.736Z,12.40
2019-01-19T22:43:34.623Z,13.18
2019-01-19T22:46:15.364Z,13.65
2019-01-19T22:48:56.814Z,13.95
2019-01-19T22:51:38.274Z,13.22
2019-01-19T22:54:07.450Z,14.25
2019-01-19T23:02:35.500Z,13.32
2019-01-19T23:05:16.661Z,14.50
2019-01-19T23:07:45.825Z,14.68
2019-01-19T23:10:15.027Z,14.65
2019-01-19T23:12:44.037Z,15.08
2019-01-19T23:15:32.216Z,15.08
2019-01-19T23:18:20.475Z,14.28
2019-01-19T23:24:06.919Z,14.85
2019-01-19T23:26:46.408Z,14.58
2019-01-19T23:29:34.849Z,14.53
2019-01-19T23:32:16.033Z,15.93
2019-01-19T23:34:58.399Z,14.38
2019-01-19T23:37:38.892Z,13.20
2019-01-19T23:40:19.953Z,16.10
2019-01-19T23:42:59.409Z,17.35
2019-01-19T23:45:28.400Z,17.05
2019-01-19T23:48:16.607Z,15.83
2019-01-19T23:50:45.480Z,16.17
2019-01-19T23:53:33.591Z,15.35
2019-01-19T23:56:14.746Z,15.45
2019-01-19T23:58:55.977Z,15.15
